createdAt,value
2018-12-17T00:00:10.871Z,21.8
2018-12-17T00:01:13.051Z,21.8
2018-12-17T00:02:15.202Z,21.8
2018-12-17T00:03:17.512Z,21.8
2018-12-17T00:04:19.943Z,21.8
2018-12-17T00:05:22.382Z,21.7
2018-12-17T00:06:24.804Z,21.8
2018-12-17T00:07:26.973Z,21.7
2018-12-17T00:09:34.378Z,21.8
2018-12-17T00:10:36.538Z,21.7
2018-12-17T00:11:38.675Z,21.8
2018-12-17T00:12:41.101Z,21.8
2018-12-17T00:13:43.253Z,21.8
2018-12-17T00:14:45.404Z,21.8
2018-12-17T00:15:47.829Z,21.8
2018-12-17T00:16:50.252Z,21.8
2018-12-17T00:17:52.671Z,21.8
2018-12-17T00:18:54.825Z,21.8
2018-12-17T00:19:57.247Z,21.8
2018-12-17T00:20:59.669Z,21.8
2018-12-17T00:22:02.122Z,21.8
2018-12-17T00:23:04.001Z,21.8
2018-12-17T00:24:06.433Z,21.8
2018-12-17T00:25:08.592Z,21.8
2018-12-17T00:26:11.022Z,21.8
2018-12-17T00:27:13.448Z,21.8
2018-12-17T00:28:15.867Z,21.8
2018-12-17T00:29:18.298Z,21.8
2018-12-17T00:30:20.722Z,21.8
2018-12-17T00:31:23.153Z,21.8
2018-12-17T00:32:25.307Z,21.8
2018-12-17T00:33:27.731Z,21.9
2018-12-17T00:34:30.161Z,21.9
2018-12-17T00:35:32.587Z,21.9
2018-12-17T00:36:34.997Z,21.9
2018-12-17T00:37:37.166Z,21.9
2018-12-17T00:38:39.317Z,21.9
2018-12-17T00:39:41.488Z,21.9
2018-12-17T00:40:43.909Z,22
2018-12-17T00:41:46.046Z,22
2018-12-17T00:42:48.472Z,22
2018-12-17T00:43:50.613Z,22
2018-12-17T00:44:52.780Z,22
2018-12-17T00:45:54.675Z,22
2018-12-17T00:46:57.111Z,22
2018-12-17T00:47:59.255Z,22
2018-12-17T00:49:01.414Z,22
2018-12-17T00:50:03.561Z,22
2018-12-17T00:51:06.001Z,22
2018-12-17T00:52:08.152Z,22
2018-12-17T00:53:10.575Z,22
2018-12-17T00:54:12.455Z,22
2018-12-17T00:55:14.884Z,22
2018-12-17T00:56:17.313Z,22
2018-12-17T00:57:19.463Z,22
2018-12-17T00:58:21.952Z,22.1
2018-12-17T00:59:24.370Z,22.1
2018-12-17T01:00:26.792Z,22.1
2018-12-17T01:01:29.221Z,22.1
2018-12-17T01:02:31.664Z,22.1
2018-12-17T01:03:34.082Z,22.1
2018-12-17T01:04:36.515Z,22.1
2018-12-17T01:05:38.957Z,22.1
2018-12-17T01:06:41.383Z,22.1
2018-12-17T01:07:43.806Z,22.1
2018-12-17T01:08:46.242Z,22.1
2018-12-17T01:09:48.396Z,22.1
2018-12-17T01:10:50.287Z,22.2
2018-12-17T01:11:52.450Z,22.1
2018-12-17T01:12:54.874Z,22.2
2018-12-17T01:13:57.041Z,22.2
2018-12-17T01:14:59.213Z,22.2
2018-12-17T01:16:01.351Z,22.2
2018-12-17T01:17:02.953Z,22.1
2018-12-17T01:18:04.824Z,22.2
2018-12-17T01:19:07.253Z,22.2
2018-12-17T01:20:09.671Z,22.2
2018-12-17T01:21:12.143Z,22.2
2018-12-17T01:22:14.571Z,22.2
2018-12-17T01:23:17.018Z,22.2
2018-12-17T01:24:19.444Z,22.2
2018-12-17T01:25:21.860Z,22.2
2018-12-17T01:26:24.295Z,22.2
2018-12-17T01:27:26.419Z,22.2
2018-12-17T01:28:28.842Z,22.2
2018-12-17T01:29:31.014Z,22.2
2018-12-17T01:30:33.173Z,22.2
2018-12-17T01:31:35.598Z,22.2
2018-12-17T01:32:37.759Z,22.2
2018-12-17T01:33:40.185Z,22.2
2018-12-17T01:34:42.343Z,22.2
2018-12-17T01:35:44.771Z,22.2
2018-12-17T01:36:46.672Z,22.2
2018-12-17T01:37:48.828Z,22.2
2018-12-17T01:38:51.253Z,22.2
2018-12-17T01:39:53.681Z,22.2
2018-12-17T01:40:55.823Z,22.2
2018-12-17T01:41:58.249Z,22.2
2018-12-17T01:43:00.394Z,22.2
2018-12-17T01:44:02.822Z,22.1
2018-12-17T01:45:04.985Z,22.2
2018-12-17T01:46:07.152Z,22.2
2018-12-17T01:47:08.765Z,22.2
2018-12-17T01:48:11.172Z,22.2
2018-12-17T01:49:13.307Z,22.2
2018-12-17T01:50:15.737Z,22.2
2018-12-17T01:51:18.165Z,22.2
2018-12-17T01:52:20.315Z,22.2
2018-12-17T01:53:22.469Z,22.2
2018-12-17T01:54:24.903Z,22.2
2018-12-17T01:55:27.331Z,22.2
2018-12-17T01:56:29.757Z,22.2
2018-12-17T01:57:31.904Z,22.2
2018-12-17T01:58:34.327Z,22.2
2018-12-17T01:59:36.750Z,22.2
2018-12-17T02:00:38.882Z,22.2
2018-12-17T02:01:41.034Z,22.2
2018-12-17T02:02:43.464Z,22.2
2018-12-17T02:03:45.889Z,22.2
2018-12-17T02:04:48.049Z,22.2
2018-12-17T02:05:50.481Z,22.2
2018-12-17T02:06:52.954Z,22.2
2018-12-17T02:07:55.090Z,22.2
2018-12-17T02:08:56.979Z,22.2
2018-12-17T02:09:59.406Z,22.2
2018-12-17T02:11:01.546Z,22.2
2018-12-17T02:12:03.980Z,22.2
2018-12-17T02:13:06.119Z,22.2
2018-12-17T02:14:07.966Z,22.2
2018-12-17T02:15:10.091Z,22.2
2018-12-17T02:16:12.249Z,22.2
2018-12-17T02:17:14.426Z,22.2
2018-12-17T02:18:16.846Z,22.2
2018-12-17T02:19:19.272Z,22.2
2018-12-17T02:20:21.688Z,22.2
2018-12-17T02:21:24.120Z,22.2
2018-12-17T02:22:26.283Z,22.2
2018-12-17T02:23:28.440Z,22.2
2018-12-17T02:24:30.305Z,22.2
2018-12-17T02:25:32.462Z,22.2
2018-12-17T02:26:34.887Z,22.2
2018-12-17T02:27:37.051Z,22.2
2018-12-17T02:28:39.210Z,22.2
2018-12-17T02:29:41.642Z,22.2
2018-12-17T02:30:43.783Z,22.2
2018-12-17T02:31:45.681Z,22.2
2018-12-17T02:32:47.845Z,22.2
2018-12-17T02:33:50.271Z,22.2
2018-12-17T02:34:52.702Z,22.2
2018-12-17T02:35:54.870Z,22.2
2018-12-17T02:36:57.020Z,22.2
2018-12-17T02:37:59.172Z,22.2
2018-12-17T02:39:01.340Z,22.2
2018-12-17T02:40:03.832Z,22.2
2018-12-17T02:41:06.236Z,22.2
2018-12-17T02:42:08.394Z,22.2
2018-12-17T02:43:10.892Z,22.2
2018-12-17T02:44:13.308Z,22.2
2018-12-17T02:45:15.731Z,22.2
2018-12-17T02:46:32.243Z,22.2
2018-12-17T02:47:34.681Z,22.3
2018-12-17T02:48:37.101Z,22.2
2018-12-17T02:49:39.605Z,22.2
2018-12-17T02:50:42.039Z,22.2
2018-12-17T02:51:44.462Z,22.2
2018-12-17T02:52:46.879Z,22.2
2018-12-17T02:53:49.302Z,22.2
2018-12-17T02:54:51.729Z,22.2
2018-12-17T02:55:53.626Z,22.2
2018-12-17T02:56:55.767Z,22.2
2018-12-17T02:57:58.201Z,22.2
2018-12-17T02:59:00.357Z,22.2
2018-12-17T03:00:02.789Z,22.2
2018-12-17T03:01:05.243Z,22.2
2018-12-17T03:02:07.393Z,22.2
2018-12-17T03:03:09.543Z,22.2
2018-12-17T03:04:11.711Z,22.3
2018-12-17T03:05:13.871Z,22.3
2018-12-17T03:06:16.020Z,22.3
2018-12-17T03:07:18.452Z,22.3
2018-12-17T03:08:20.610Z,22.3
2018-12-17T03:09:23.045Z,22.3
2018-12-17T03:10:25.462Z,22.3
2018-12-17T03:11:27.884Z,22.3
2018-12-17T03:12:30.315Z,22.3
2018-12-17T03:13:32.731Z,22.3
2018-12-17T03:14:34.609Z,22.3
2018-12-17T03:15:37.040Z,22.3
2018-12-17T03:16:38.902Z,22.3
2018-12-17T03:17:41.041Z,22.3
2018-12-17T03:18:42.644Z,22.3
2018-12-17T03:19:44.795Z,22.3
2018-12-17T03:20:46.694Z,22.3
2018-12-17T03:21:49.100Z,22.3
2018-12-17T03:22:51.522Z,22.3
2018-12-17T03:23:53.974Z,22.3
2018-12-17T03:24:56.148Z,22.3
2018-12-17T03:25:58.309Z,22.3
2018-12-17T03:27:00.460Z,22.3
2018-12-17T03:28:02.615Z,22.3
2018-12-17T03:29:05.045Z,22.3
2018-12-17T03:30:07.488Z,22.2
2018-12-17T03:31:09.909Z,22.2
2018-12-17T03:32:12.333Z,22.2
2018-12-17T03:33:14.487Z,22.2
2018-12-17T03:34:16.629Z,22.2
2018-12-17T03:35:18.781Z,22.2
2018-12-17T03:36:21.212Z,22.2
2018-12-17T03:37:23.367Z,22.2
2018-12-17T03:38:25.534Z,22.2
2018-12-17T03:39:27.398Z,22.2
2018-12-17T03:40:29.571Z,22.2
2018-12-17T03:41:31.776Z,22.2
2018-12-17T03:42:34.207Z,22.2
2018-12-17T03:43:36.347Z,22.2
2018-12-17T03:44:38.779Z,22.2
2018-12-17T03:45:40.922Z,22.2
2018-12-17T03:46:43.351Z,22.3
2018-12-17T03:47:45.954Z,22.3
2018-12-17T03:48:47.829Z,22.3
2018-12-17T03:49:49.999Z,22.2
2018-12-17T03:50:52.428Z,22.3
2018-12-17T03:51:54.860Z,22.3
2018-12-17T03:52:57.006Z,22.2
2018-12-17T03:53:59.160Z,22.3
2018-12-17T03:55:01.043Z,22.3
2018-12-17T03:56:03.474Z,22.3
2018-12-17T03:57:05.897Z,22.3
2018-12-17T03:58:08.042Z,22.3
2018-12-17T03:59:10.466Z,22.3
2018-12-17T04:00:12.323Z,22.3
2018-12-17T04:01:14.743Z,22.3
2018-12-17T04:02:16.601Z,22.3
2018-12-17T04:03:18.481Z,22.3
2018-12-17T04:04:20.900Z,22.3
2018-12-17T04:05:23.319Z,22.3
2018-12-17T04:06:25.448Z,22.3
2018-12-17T04:07:27.631Z,22.2
2018-12-17T04:08:30.064Z,22.3
2018-12-17T04:09:32.490Z,22.3
2018-12-17T04:10:34.630Z,22.3
2018-12-17T04:11:37.048Z,22.3
2018-12-17T04:12:39.483Z,22.3
2018-12-17T04:13:41.634Z,22.3
2018-12-17T04:14:44.048Z,22.3
2018-12-17T04:15:45.931Z,22.3
2018-12-17T04:16:48.125Z,22.3
2018-12-17T04:17:50.547Z,22.3
2018-12-17T04:18:52.399Z,22.3
2018-12-17T04:19:54.828Z,22.3
2018-12-17T04:20:56.976Z,22.3
2018-12-17T04:21:59.132Z,22.3
2018-12-17T04:23:01.264Z,22.4
2018-12-17T04:24:03.406Z,22.4
2018-12-17T04:25:05.846Z,22.4
2018-12-17T04:26:08.270Z,22.4
2018-12-17T04:27:10.420Z,22.4
2018-12-17T04:28:12.854Z,22.4
2018-12-17T04:29:15.280Z,22.4
2018-12-17T04:30:17.705Z,22.4
2018-12-17T04:31:20.142Z,22.4
2018-12-17T04:32:22.569Z,22.4
2018-12-17T04:33:24.729Z,22.4
2018-12-17T04:34:27.160Z,22.4
2018-12-17T04:35:29.578Z,22.4
2018-12-17T04:36:31.730Z,22.4
2018-12-17T04:37:33.330Z,22.3
2018-12-17T04:38:35.755Z,22.3
2018-12-17T04:39:38.184Z,22.3
2018-12-17T04:40:40.672Z,22.3
2018-12-17T04:41:42.603Z,22.3
2018-12-17T04:42:44.720Z,22.3
2018-12-17T04:43:46.842Z,22.3
2018-12-17T04:44:49.315Z,22.3
2018-12-17T04:45:51.469Z,22.3
2018-12-17T04:46:53.902Z,22.3
2018-12-17T04:47:56.056Z,22.3
2018-12-17T04:48:57.910Z,22.3
2018-12-17T04:49:59.802Z,22.3
2018-12-17T04:51:01.670Z,22.3
2018-12-17T04:52:03.828Z,22.3
2018-12-17T04:53:06.246Z,22.3
2018-12-17T04:54:08.368Z,22.3
2018-12-17T04:55:10.792Z,22.3
2018-12-17T04:56:12.937Z,22.3
2018-12-17T04:57:15.360Z,22.3
2018-12-17T04:58:17.792Z,22.3
2018-12-17T04:59:20.221Z,22.3
2018-12-17T05:00:22.626Z,22.3
2018-12-17T05:01:25.044Z,22.2
2018-12-17T05:02:27.512Z,22.2
2018-12-17T05:03:29.932Z,22.2
2018-12-17T05:04:32.363Z,22.2
2018-12-17T05:05:34.232Z,22.2
2018-12-17T05:06:36.651Z,22.2
2018-12-17T05:07:39.070Z,22.2
2018-12-17T05:08:41.513Z,22.2
2018-12-17T05:09:45.223Z,22.2
2018-12-17T05:10:47.662Z,22.2
2018-12-17T05:11:49.796Z,22.2
2018-12-17T05:12:52.210Z,22.2
2018-12-17T05:13:54.362Z,22.2
2018-12-17T05:14:56.780Z,22.2
2018-12-17T05:15:59.269Z,22.2
2018-12-17T05:17:01.146Z,22.2
2018-12-17T05:18:03.639Z,22.2
2018-12-17T05:19:06.663Z,22.2
2018-12-17T05:20:09.160Z,22.2
2018-12-17T05:21:11.307Z,22.2
2018-12-17T05:22:13.466Z,22.2
2018-12-17T05:23:15.354Z,22.2
2018-12-17T05:24:17.529Z,22.2
2018-12-17T05:25:19.696Z,22.2
2018-12-17T05:26:22.120Z,22.2
2018-12-17T05:27:24.269Z,22.2
2018-12-17T05:28:26.692Z,22.2
2018-12-17T05:29:29.108Z,22.1
2018-12-17T05:30:31.536Z,22.1
2018-12-17T05:31:33.954Z,22.1
2018-12-17T05:32:35.831Z,22.1
2018-12-17T05:33:38.261Z,22.1
2018-12-17T05:34:40.429Z,22.1
2018-12-17T05:35:42.842Z,22.1
2018-12-17T05:36:45.004Z,22.1
2018-12-17T05:37:47.422Z,22.1
2018-12-17T05:38:49.583Z,22.1
2018-12-17T05:39:52.009Z,22.1
2018-12-17T05:40:53.902Z,22.1
2018-12-17T05:41:55.794Z,22.1
2018-12-17T05:42:58.223Z,22.1
2018-12-17T05:44:00.382Z,22.1
2018-12-17T05:45:02.821Z,22.1
2018-12-17T05:46:05.258Z,22.1
2018-12-17T05:47:07.697Z,22.1
2018-12-17T05:48:10.126Z,22.1
2018-12-17T05:49:13.151Z,22.1
2018-12-17T05:50:15.571Z,22.1
2018-12-17T05:51:18.002Z,22.1
2018-12-17T05:52:20.432Z,22.1
2018-12-17T05:53:22.661Z,22.1
2018-12-17T05:54:25.082Z,22.1
2018-12-17T05:55:27.238Z,22.1
2018-12-17T05:56:29.396Z,22.1
2018-12-17T05:57:31.813Z,22.1
2018-12-17T05:58:33.420Z,22.1
2018-12-17T05:59:35.851Z,22.1
2018-12-17T06:00:38.027Z,22.1
2018-12-17T06:01:40.471Z,22.1
2018-12-17T06:02:42.882Z,22.1
2018-12-17T06:03:45.326Z,22
2018-12-17T06:04:47.739Z,22
2018-12-17T06:05:49.614Z,22
2018-12-17T06:06:51.767Z,22
2018-12-17T06:07:54.191Z,22
2018-12-17T06:08:56.649Z,22
2018-12-17T06:09:59.080Z,22
2018-12-17T06:11:01.517Z,22
2018-12-17T06:12:03.940Z,22
2018-12-17T06:13:06.096Z,22
2018-12-17T06:14:07.978Z,22
2018-12-17T06:15:10.132Z,22
2018-12-17T06:16:12.272Z,22
2018-12-17T06:17:14.701Z,22
2018-12-17T06:18:17.184Z,22
2018-12-17T06:19:19.642Z,22
2018-12-17T06:20:21.527Z,22
2018-12-17T06:21:23.972Z,22
2018-12-17T06:22:26.476Z,22
2018-12-17T06:23:28.921Z,22
2018-12-17T06:24:31.152Z,22
2018-12-17T06:25:33.585Z,22
2018-12-17T06:26:36.023Z,22
2018-12-17T06:27:39.657Z,22
2018-12-17T06:28:42.081Z,22
2018-12-17T06:29:43.937Z,22
2018-12-17T06:30:46.381Z,22
2018-12-17T06:31:48.824Z,22
2018-12-17T06:32:51.257Z,22
2018-12-17T06:33:53.387Z,22
2018-12-17T06:34:55.810Z,22
2018-12-17T06:35:58.243Z,22
2018-12-17T06:37:00.444Z,22
2018-12-17T06:38:02.620Z,22
2018-12-17T06:39:05.090Z,22
2018-12-17T06:41:12.507Z,22
2018-12-17T06:42:29.620Z,22
2018-12-17T06:43:31.799Z,22
2018-12-17T06:44:33.973Z,22
2018-12-17T06:45:36.418Z,22
2018-12-17T06:46:38.862Z,22
2018-12-17T06:47:41.298Z,22
2018-12-17T06:48:43.773Z,22
2018-12-17T06:49:46.299Z,22
2018-12-17T06:50:48.161Z,22
2018-12-17T06:51:50.037Z,22
2018-12-17T06:52:52.216Z,22
2018-12-17T06:53:54.095Z,22
2018-12-17T06:54:56.251Z,22
2018-12-17T06:55:58.417Z,21.9
2018-12-17T06:57:00.840Z,21.9
2018-12-17T06:58:03.006Z,21.9
2018-12-17T06:59:05.159Z,21.9
2018-12-17T07:00:07.602Z,21.9
2018-12-17T07:01:09.781Z,21.9
2018-12-17T07:02:12.226Z,21.9
2018-12-17T07:03:14.384Z,21.9
2018-12-17T07:04:16.810Z,21.9
2018-12-17T07:05:19.238Z,21.9
2018-12-17T07:06:21.658Z,21.9
2018-12-17T07:07:23.835Z,21.9
2018-12-17T07:08:26.270Z,21.9
2018-12-17T07:09:28.700Z,21.9
2018-12-17T07:10:30.892Z,21.9
2018-12-17T07:11:33.333Z,21.9
2018-12-17T07:12:35.497Z,21.9
2018-12-17T07:13:37.925Z,21.9
2018-12-17T07:14:40.352Z,21.9
2018-12-17T07:15:42.504Z,21.9
2018-12-17T07:16:44.936Z,21.9
2018-12-17T07:17:46.799Z,21.9
2018-12-17T07:18:48.690Z,21.9
2018-12-17T07:19:50.540Z,21.9
2018-12-17T07:20:52.438Z,21.9
2018-12-17T07:21:54.864Z,21.9
2018-12-17T07:22:57.328Z,21.9
2018-12-17T07:23:59.682Z,21.9
2018-12-17T07:25:02.352Z,21.9
2018-12-17T07:26:04.785Z,21.9
2018-12-17T07:27:07.244Z,21.9
2018-12-17T07:28:09.453Z,21.9
2018-12-17T07:29:11.940Z,21.9
2018-12-17T07:30:14.387Z,21.8
2018-12-17T07:31:16.831Z,21.8
2018-12-17T07:32:19.715Z,21.9
2018-12-17T07:33:22.135Z,21.8
2018-12-17T07:34:24.293Z,21.8
2018-12-17T07:35:26.709Z,21.9
2018-12-17T07:36:29.191Z,21.8
2018-12-17T07:37:31.324Z,21.9
2018-12-17T07:38:33.183Z,21.8
2018-12-17T07:39:35.039Z,21.8
2018-12-17T07:40:37.212Z,21.9
2018-12-17T07:41:39.638Z,21.8
2018-12-17T07:42:42.064Z,21.8
2018-12-17T07:43:44.493Z,21.8
2018-12-17T07:44:46.646Z,21.8
2018-12-17T07:45:48.781Z,21.9
2018-12-17T07:46:50.921Z,21.8
2018-12-17T07:47:52.830Z,21.8
2018-12-17T07:48:54.971Z,21.9
2018-12-17T07:49:57.192Z,21.9
2018-12-17T07:50:59.349Z,21.8
2018-12-17T07:52:01.777Z,21.9
2018-12-17T07:53:04.216Z,21.9
2018-12-17T07:54:06.099Z,21.9
2018-12-17T07:55:08.531Z,21.9
2018-12-17T07:56:10.691Z,21.9
2018-12-17T07:57:12.843Z,21.9
2018-12-17T07:58:14.753Z,21.9
2018-12-17T07:59:16.363Z,21.9
2018-12-17T08:00:18.801Z,21.9
2018-12-17T08:01:20.931Z,21.9
2018-12-17T08:02:22.883Z,21.9
2018-12-17T08:03:25.029Z,21.9
2018-12-17T08:04:27.462Z,21.9
2018-12-17T08:05:29.891Z,21.9
2018-12-17T08:06:31.774Z,21.9
2018-12-17T08:07:34.211Z,21.9
2018-12-17T08:08:36.799Z,21.9
2018-12-17T08:09:38.949Z,21.9
2018-12-17T08:10:41.102Z,21.9
2018-12-17T08:11:43.526Z,21.9
2018-12-17T08:12:45.666Z,21.9
2018-12-17T08:13:47.546Z,21.9
2018-12-17T08:14:49.985Z,21.9
2018-12-17T08:15:52.129Z,21.9
2018-12-17T08:16:54.277Z,21.9
2018-12-17T08:17:56.701Z,21.9
2018-12-17T08:18:59.131Z,21.9
2018-12-17T08:20:01.300Z,21.8
2018-12-17T08:21:03.727Z,21.9
2018-12-17T08:22:06.149Z,21.8
2018-12-17T08:23:08.298Z,21.9
2018-12-17T08:24:10.730Z,21.9
2018-12-17T08:25:13.189Z,21.9
2018-12-17T08:26:15.359Z,21.8
2018-12-17T08:27:17.525Z,21.8
2018-12-17T08:28:19.957Z,21.8
2018-12-17T08:29:22.392Z,21.8
2018-12-17T08:30:24.566Z,21.8
2018-12-17T08:31:26.719Z,21.8
2018-12-17T08:32:28.879Z,21.8
2018-12-17T08:33:30.774Z,21.8
2018-12-17T08:34:33.196Z,21.9
2018-12-17T08:35:35.619Z,21.9
2018-12-17T08:36:37.825Z,21.8
2018-12-17T08:37:40.248Z,21.8
2018-12-17T08:38:42.412Z,21.8
2018-12-17T08:39:44.562Z,21.8
2018-12-17T08:40:46.990Z,21.8
2018-12-17T08:41:49.419Z,21.8
2018-12-17T08:42:51.851Z,21.8
2018-12-17T08:43:54.281Z,21.8
2018-12-17T08:44:56.499Z,21.9
2018-12-17T08:45:58.940Z,21.8
2018-12-17T08:47:00.887Z,21.8
2018-12-17T08:48:03.308Z,21.9
2018-12-17T08:49:05.740Z,21.8
2018-12-17T08:50:07.893Z,21.9
2018-12-17T08:51:10.321Z,21.9
2018-12-17T08:52:12.213Z,21.9
2018-12-17T08:53:14.090Z,21.9
2018-12-17T08:54:16.245Z,21.9
2018-12-17T08:55:18.669Z,21.8
2018-12-17T08:56:20.567Z,21.8
2018-12-17T08:57:22.992Z,21.8
2018-12-17T08:58:25.404Z,21.9
2018-12-17T08:59:27.832Z,21.8
2018-12-17T09:00:30.258Z,21.8
2018-12-17T09:01:32.680Z,21.8
2018-12-17T09:02:34.840Z,21.8
2018-12-17T09:03:37.272Z,21.9
2018-12-17T09:04:39.698Z,21.8
2018-12-17T09:05:42.123Z,21.8
2018-12-17T09:06:44.559Z,21.8
2018-12-17T09:07:46.712Z,21.8
2018-12-17T09:08:49.150Z,21.8
2018-12-17T09:09:51.306Z,21.9
2018-12-17T09:10:53.729Z,21.9
2018-12-17T09:11:55.884Z,21.9
2018-12-17T09:12:58.056Z,21.9
2018-12-17T09:14:00.472Z,21.9
2018-12-17T09:15:01.798Z,21.9
2018-12-17T09:16:03.950Z,21.9
2018-12-17T09:17:06.100Z,21.9
2018-12-17T09:18:08.518Z,21.9
2018-12-17T09:19:10.955Z,21.9
2018-12-17T09:20:13.370Z,21.9
2018-12-17T09:21:15.524Z,21.9
2018-12-17T09:22:17.383Z,21.9
2018-12-17T09:23:19.807Z,21.9
2018-12-17T09:24:21.683Z,21.9
2018-12-17T09:25:23.862Z,21.9
2018-12-17T09:26:26.080Z,21.9
2018-12-17T09:27:28.233Z,21.9
2018-12-17T09:28:30.657Z,21.9
2018-12-17T09:29:32.814Z,21.9
2018-12-17T09:31:40.220Z,21.9
2018-12-17T09:32:42.651Z,21.9
2018-12-17T09:33:45.080Z,21.9
2018-12-17T09:34:47.499Z,21.9
2018-12-17T09:35:49.671Z,21.8
2018-12-17T09:36:52.104Z,21.8
2018-12-17T09:37:54.542Z,21.8
2018-12-17T09:38:56.983Z,21.8
2018-12-17T09:39:59.137Z,21.8
2018-12-17T09:41:01.297Z,21.8
2018-12-17T09:42:03.732Z,21.8
2018-12-17T09:43:06.150Z,21.8
2018-12-17T09:44:08.330Z,21.8
2018-12-17T09:45:10.487Z,21.8
2018-12-17T09:46:12.362Z,21.8
2018-12-17T09:47:14.784Z,21.8
2018-12-17T09:48:16.684Z,21.8
2018-12-17T09:49:19.102Z,21.8
2018-12-17T09:50:21.258Z,21.8
2018-12-17T09:51:23.744Z,21.8
2018-12-17T09:52:26.212Z,21.8
2018-12-17T09:53:28.631Z,21.8
2018-12-17T09:54:30.771Z,21.8
2018-12-17T09:55:32.941Z,21.8
2018-12-17T09:56:34.825Z,21.8
2018-12-17T09:57:37.252Z,21.8
2018-12-17T09:58:39.683Z,21.8
2018-12-17T09:59:56.772Z,21.8
2018-12-17T10:00:59.200Z,21.8
2018-12-17T10:02:01.622Z,21.8
2018-12-17T10:03:03.790Z,21.8
2018-12-17T10:04:05.941Z,21.8
2018-12-17T10:05:08.358Z,21.8
2018-12-17T10:06:10.790Z,21.8
2018-12-17T10:07:13.218Z,21.8
2018-12-17T10:08:15.373Z,21.8
2018-12-17T10:09:17.529Z,21.8
2018-12-17T10:10:19.959Z,21.8
2018-12-17T10:11:22.111Z,21.8
2018-12-17T10:12:24.565Z,21.8
2018-12-17T10:13:26.433Z,21.8
2018-12-17T10:14:28.570Z,21.8
2018-12-17T10:15:31.002Z,21.8
2018-12-17T10:16:33.170Z,21.8
2018-12-17T10:17:35.402Z,21.8
2018-12-17T10:18:38.072Z,21.8
2018-12-17T10:19:40.404Z,21.8
2018-12-17T10:20:42.558Z,21.8
2018-12-17T10:21:44.978Z,21.8
2018-12-17T10:22:47.416Z,21.8
2018-12-17T10:23:49.845Z,21.8
2018-12-17T10:24:52.002Z,21.8
2018-12-17T10:25:54.174Z,21.8
2018-12-17T10:26:56.592Z,21.8
2018-12-17T10:27:58.472Z,21.8
2018-12-17T10:29:00.076Z,21.8
2018-12-17T10:30:02.516Z,21.8
2018-12-17T10:31:04.470Z,21.8
2018-12-17T10:32:06.599Z,21.8
2018-12-17T10:33:09.013Z,21.8
2018-12-17T10:34:11.187Z,21.8
2018-12-17T10:35:13.616Z,21.8
2018-12-17T10:36:15.783Z,21.8
2018-12-17T10:37:17.952Z,21.8
2018-12-17T10:38:19.835Z,21.8
2018-12-17T10:39:22.256Z,21.8
2018-12-17T10:40:24.684Z,21.8
2018-12-17T10:41:26.851Z,21.8
2018-12-17T10:42:29.269Z,21.8
2018-12-17T10:43:31.698Z,21.8
2018-12-17T10:44:33.858Z,21.8
2018-12-17T10:45:36.008Z,21.8
2018-12-17T10:46:38.446Z,21.8
2018-12-17T10:47:40.602Z,21.8
2018-12-17T10:48:43.027Z,21.8
2018-12-17T10:49:45.446Z,21.8
2018-12-17T10:50:47.864Z,21.8
2018-12-17T10:51:50.280Z,21.8
2018-12-17T10:52:52.722Z,21.8
2018-12-17T10:53:54.868Z,21.8
2018-12-17T10:54:57.300Z,21.8
2018-12-17T10:55:59.742Z,21.8
2018-12-17T10:57:01.624Z,21.8
2018-12-17T10:58:04.046Z,21.8
2018-12-17T10:59:06.181Z,21.8
2018-12-17T11:00:08.623Z,21.8
2018-12-17T11:01:11.052Z,21.8
2018-12-17T11:02:13.212Z,21.8
2018-12-17T11:03:15.632Z,21.8
2018-12-17T11:04:18.055Z,21.8
2018-12-17T11:05:20.208Z,21.8
2018-12-17T11:06:22.642Z,21.8
2018-12-17T11:07:24.797Z,21.8
2018-12-17T11:08:27.216Z,21.8
2018-12-17T11:09:29.641Z,21.8
2018-12-17T11:10:32.062Z,21.8
2018-12-17T11:11:34.482Z,21.8
2018-12-17T11:12:36.608Z,21.8
2018-12-17T11:13:38.776Z,21.8
2018-12-17T11:14:41.206Z,21.8
2018-12-17T11:15:43.635Z,21.8
2018-12-17T11:16:45.788Z,21.8
2018-12-17T11:17:47.936Z,21.8
2018-12-17T11:18:50.095Z,21.8
2018-12-17T11:19:52.320Z,21.8
2018-12-17T11:20:54.742Z,21.8
2018-12-17T11:21:57.183Z,21.8
2018-12-17T11:22:59.614Z,21.8
2018-12-17T11:24:01.750Z,21.8
2018-12-17T11:25:03.926Z,21.8
2018-12-17T11:26:05.808Z,21.8
2018-12-17T11:27:08.232Z,21.8
2018-12-17T11:28:10.658Z,21.8
2018-12-17T11:29:13.080Z,21.8
2018-12-17T11:30:15.225Z,21.8
2018-12-17T11:31:16.860Z,21.8
2018-12-17T11:32:19.290Z,21.8
2018-12-17T11:33:21.730Z,21.8
2018-12-17T11:34:24.151Z,21.8
2018-12-17T11:35:26.578Z,21.8
2018-12-17T11:36:29.016Z,21.8
2018-12-17T11:37:31.173Z,21.8
2018-12-17T11:38:33.604Z,21.8
2018-12-17T11:39:36.037Z,21.8
2018-12-17T11:40:38.185Z,21.8
2018-12-17T11:41:40.600Z,21.8
2018-12-17T11:42:43.033Z,21.8
2018-12-17T11:43:45.457Z,21.8
2018-12-17T11:44:47.619Z,21.8
2018-12-17T11:45:50.042Z,21.8
2018-12-17T11:46:52.200Z,21.8
2018-12-17T11:47:54.364Z,21.8
2018-12-17T11:48:56.790Z,21.8
2018-12-17T11:49:58.679Z,21.8
2018-12-17T11:51:01.096Z,21.8
2018-12-17T11:52:03.253Z,21.8
2018-12-17T11:53:05.417Z,21.8
2018-12-17T11:54:07.569Z,21.8
2018-12-17T11:55:09.753Z,21.8
2018-12-17T11:56:12.172Z,21.8
2018-12-17T11:57:14.329Z,21.8
2018-12-17T11:58:16.755Z,21.8
2018-12-17T11:59:19.177Z,21.8
2018-12-17T12:00:21.339Z,21.8
2018-12-17T12:01:23.761Z,21.8
2018-12-17T12:02:26.192Z,21.8
2018-12-17T12:03:28.349Z,21.8
2018-12-17T12:04:30.876Z,21.8
2018-12-17T12:05:33.021Z,21.8
2018-12-17T12:06:35.181Z,21.8
2018-12-17T12:07:37.309Z,21.8
2018-12-17T12:08:39.732Z,21.8
2018-12-17T12:09:41.894Z,21.8
2018-12-17T12:10:44.321Z,21.8
2018-12-17T12:11:46.762Z,21.8
2018-12-17T12:12:48.647Z,21.8
2018-12-17T12:13:51.078Z,21.8
2018-12-17T12:14:53.231Z,21.8
2018-12-17T12:15:55.663Z,21.8
2018-12-17T12:16:57.822Z,21.8
2018-12-17T12:18:00.249Z,21.8
2018-12-17T12:19:02.702Z,21.8
2018-12-17T12:20:05.131Z,21.8
2018-12-17T12:21:07.560Z,21.8
2018-12-17T12:22:09.731Z,21.8
2018-12-17T12:23:11.867Z,21.8
2018-12-17T12:24:14.019Z,21.8
2018-12-17T12:25:16.452Z,21.8
2018-12-17T12:26:18.612Z,21.8
2018-12-17T12:27:21.026Z,21.8
2018-12-17T12:28:23.458Z,21.8
2018-12-17T12:29:25.626Z,21.8
2018-12-17T12:30:28.051Z,21.8
2018-12-17T12:31:30.482Z,21.8
2018-12-17T12:32:32.364Z,21.8
2018-12-17T12:33:34.789Z,21.8
2018-12-17T12:34:36.917Z,21.8
2018-12-17T12:35:39.351Z,21.8
2018-12-17T12:36:41.511Z,21.8
2018-12-17T12:37:43.699Z,21.8
2018-12-17T12:38:45.865Z,21.8
2018-12-17T12:39:48.293Z,21.8
2018-12-17T12:40:50.453Z,21.8
2018-12-17T12:41:52.603Z,21.8
2018-12-17T12:42:54.747Z,21.8
2018-12-17T12:43:56.905Z,21.8
2018-12-17T12:44:59.064Z,21.8
2018-12-17T12:46:01.200Z,21.8
2018-12-17T12:47:03.370Z,21.8
2018-12-17T12:48:05.805Z,21.8
2018-12-17T12:49:07.942Z,21.8
2018-12-17T12:50:10.370Z,21.8
2018-12-17T12:51:12.804Z,21.8
2018-12-17T12:52:15.226Z,21.8
2018-12-17T12:53:17.660Z,21.8
2018-12-17T12:54:19.563Z,21.9
2018-12-17T12:55:22.005Z,21.9
2018-12-17T12:56:24.174Z,21.8
2018-12-17T12:57:26.622Z,21.9
2018-12-17T12:58:28.787Z,21.9
2018-12-17T12:59:30.689Z,21.9
2018-12-17T13:00:32.839Z,21.8
2018-12-17T13:01:34.995Z,21.8
2018-12-17T13:02:36.893Z,21.8
2018-12-17T13:03:39.311Z,21.8
2018-12-17T13:04:41.747Z,21.9
2018-12-17T13:05:43.900Z,21.8
2018-12-17T13:06:46.341Z,21.8
2018-12-17T13:07:48.493Z,21.8
2018-12-17T13:08:50.715Z,21.8
2018-12-17T13:09:53.143Z,21.8
2018-12-17T13:10:55.577Z,21.8
2018-12-17T13:11:57.711Z,21.8
2018-12-17T13:13:00.153Z,21.9
2018-12-17T13:14:02.585Z,21.8
2018-12-17T13:15:04.731Z,21.8
2018-12-17T13:16:06.891Z,21.8
2018-12-17T13:17:09.339Z,21.8
2018-12-17T13:18:11.764Z,21.8
2018-12-17T13:19:13.397Z,21.8
2018-12-17T13:20:15.569Z,21.8
2018-12-17T13:21:17.749Z,21.8
2018-12-17T13:22:19.356Z,21.8
2018-12-17T13:23:21.795Z,21.8
2018-12-17T13:24:24.270Z,21.8
2018-12-17T13:25:26.431Z,21.8
2018-12-17T13:26:28.601Z,21.8
2018-12-17T13:27:31.038Z,21.8
2018-12-17T13:28:33.464Z,21.8
2018-12-17T13:29:35.892Z,21.8
2018-12-17T13:30:38.053Z,21.8
2018-12-17T13:31:40.504Z,21.8
2018-12-17T13:32:42.933Z,21.8
2018-12-17T13:33:45.073Z,21.8
2018-12-17T13:34:47.501Z,21.8
2018-12-17T13:35:49.934Z,21.8
2018-12-17T13:36:52.350Z,21.8
2018-12-17T13:37:54.782Z,21.8
2018-12-17T13:38:56.942Z,21.8
2018-12-17T13:39:59.378Z,21.8
2018-12-17T13:41:01.548Z,21.8
2018-12-17T13:42:03.718Z,21.8
2018-12-17T13:43:05.564Z,21.8
2018-12-17T13:44:07.718Z,21.8
2018-12-17T13:45:09.894Z,21.8
2018-12-17T13:46:12.330Z,21.8
2018-12-17T13:47:14.494Z,21.8
2018-12-17T13:48:16.382Z,21.8
2018-12-17T13:49:18.543Z,21.8
2018-12-17T13:50:20.711Z,21.8
2018-12-17T13:51:23.143Z,21.8
2018-12-17T13:52:25.324Z,21.8
2018-12-17T13:53:27.462Z,21.8
2018-12-17T13:54:29.901Z,21.8
2018-12-17T13:55:32.322Z,21.8
2018-12-17T13:56:34.758Z,21.8